sensor_id;sensor_type;location;lat;lon;timestamp;P1;durP1;ratioP1;P2;durP2;ratioP2
18146;SDS011;9199;48.832;9.182;2023-04-15T00:01:40;8.15;;;3.92;;
18146;SDS011;9199;48.832;9.182;2023-04-15T00:04:08;9.17;;;3.60;;
18146;SDS011;9199;48.832;9.182;2023-04-15T00:06:35;6.07;;;2.75;;
18146;SDS011;9199;48.832;9.182;2023-04-15T00:09:03;9.45;;;3.05;;
18146;SDS011;9199;48.832;9.182;2023-04-15T00:11:30;8.93;;;3.20;;
18146;SDS011;9199;48.832;9.182;2023-04-15T00:13:57;8.65;;;2.88;;
18146;SDS011;9199;48.832;9.182;2023-04-15T00:16:24;10.13;;;3.33;;
18146;SDS011;9199;48.832;9.182;2023-04-15T00:18:50;6.97;;;3.10;;
18146;SDS011;9199;48.832;9.182;2023-04-15T00:21:18;8.50;;;3.45;;
18146;SDS011;9199;48.832;9.182;2023-04-15T00:23:45;7.70;;;3.88;;
18146;SDS011;9199;48.832;9.182;2023-04-15T00:26:16;8.35;;;4.10;;
18146;SDS011;9199;48.832;9.182;2023-04-15T00:28:43;12.70;;;4.20;;
18146;SDS011;9199;48.832;9.182;2023-04-15T00:31:10;11.05;;;3.95;;
18146;SDS011;9199;48.832;9.182;2023-04-15T00:33:36;8.02;;;3.40;;
18146;SDS011;9199;48.832;9.182;2023-04-15T00:36:05;8.93;;;3.25;;
18146;SDS011;9199;48.832;9.182;2023-04-15T00:38:33;8.05;;;3.53;;
18146;SDS011;9199;48.832;9.182;2023-04-15T00:41:01;7.37;;;3.70;;
18146;SDS011;9199;48.832;9.182;2023-04-15T00:43:29;10.30;;;4.10;;
18146;SDS011;9199;48.832;9.182;2023-04-15T00:45:55;10.25;;;4.65;;
18146;SDS011;9199;48.832;9.182;2023-04-15T00:48:24;11.50;;;4.40;;
18146;SDS011;9199;48.832;9.182;2023-04-15T00:50:52;10.80;;;4.20;;
18146;SDS011;9199;48.832;9.182;2023-04-15T00:53:18;11.87;;;4.37;;
18146;SDS011;9199;48.832;9.182;2023-04-15T00:55:47;10.32;;;3.97;;
18146;SDS011;9199;48.832;9.182;2023-04-15T00:58:14;9.85;;;4.03;;
18146;SDS011;9199;48.832;9.182;2023-04-15T01:00:41;9.55;;;3.80;;
18146;SDS011;9199;48.832;9.182;2023-04-15T01:03:08;9.57;;;3.70;;
18146;SDS011;9199;48.832;9.182;2023-04-15T01:05:35;11.67;;;3.73;;
18146;SDS011;9199;48.832;9.182;2023-04-15T01:08:03;9.63;;;3.30;;
18146;SDS011;9199;48.832;9.182;2023-04-15T01:10:30;10.23;;;3.65;;
18146;SDS011;9199;48.832;9.182;2023-04-15T01:12:58;8.93;;;4.18;;
18146;SDS011;9199;48.832;9.182;2023-04-15T01:15:25;7.82;;;3.67;;
18146;SDS011;9199;48.832;9.182;2023-04-15T01:17:52;8.53;;;3.77;;
18146;SDS011;9199;48.832;9.182;2023-04-15T01:20:19;9.77;;;4.57;;
18146;SDS011;9199;48.832;9.182;2023-04-15T01:22:46;11.05;;;4.13;;
18146;SDS011;9199;48.832;9.182;2023-04-15T01:25:16;10.18;;;4.60;;
18146;SDS011;9199;48.832;9.182;2023-04-15T01:27:45;12.60;;;5.20;;
18146;SDS011;9199;48.832;9.182;2023-04-15T01:30:12;15.40;;;4.73;;
18146;SDS011;9199;48.832;9.182;2023-04-15T01:32:39;9.45;;;4.68;;
18146;SDS011;9199;48.832;9.182;2023-04-15T01:35:06;10.43;;;4.78;;
18146;SDS011;9199;48.832;9.182;2023-04-15T01:37:34;14.25;;;5.15;;
18146;SDS011;9199;48.832;9.182;2023-04-15T01:40:01;10.90;;;4.90;;
18146;SDS011;9199;48.832;9.182;2023-04-15T01:42:28;7.93;;;4.30;;
18146;SDS011;9199;48.832;9.182;2023-04-15T01:44:56;9.27;;;4.82;;
18146;SDS011;9199;48.832;9.182;2023-04-15T01:47:23;11.20;;;5.03;;
18146;SDS011;9199;48.832;9.182;2023-04-15T01:49:50;11.60;;;4.57;;
18146;SDS011;9199;48.832;9.182;2023-04-15T01:52:16;8.93;;;4.43;;
18146;SDS011;9199;48.832;9.182;2023-04-15T01:54:43;8.23;;;4.47;;
18146;SDS011;9199;48.832;9.182;2023-04-15T01:57:10;10.23;;;4.85;;
18146;SDS011;9199;48.832;9.182;2023-04-15T01:59:37;12.85;;;4.70;;
18146;SDS011;9199;48.832;9.182;2023-04-15T02:02:05;9.75;;;4.50;;
18146;SDS011;9199;48.832;9.182;2023-04-15T02:04:31;12.40;;;4.88;;
18146;SDS011;9199;48.832;9.182;2023-04-15T02:06:58;9.43;;;4.60;;
18146;SDS011;9199;48.832;9.182;2023-04-15T02:09:25;9.18;;;4.10;;
18146;SDS011;9199;48.832;9.182;2023-04-15T02:11:52;10.32;;;4.53;;
18146;SDS011;9199;48.832;9.182;2023-04-15T02:14:18;13.70;;;6.13;;
18146;SDS011;9199;48.832;9.182;2023-04-15T02:16:46;13.85;;;5.30;;
18146;SDS011;9199;48.832;9.182;2023-04-15T02:19:14;9.53;;;4.17;;
18146;SDS011;9199;48.832;9.182;2023-04-15T02:21:40;8.35;;;4.07;;
18146;SDS011;9199;48.832;9.182;2023-04-15T02:24:07;7.63;;;3.78;;
18146;SDS011;9199;48.832;9.182;2023-04-15T02:26:34;10.80;;;4.22;;
18146;SDS011;9199;48.832;9.182;2023-04-15T02:29:00;8.23;;;4.15;;
18146;SDS011;9199;48.832;9.182;2023-04-15T02:31:27;7.93;;;3.87;;
18146;SDS011;9199;48.832;9.182;2023-04-15T02:33:54;7.40;;;3.67;;
18146;SDS011;9199;48.832;9.182;2023-04-15T02:36:22;8.15;;;3.60;;
18146;SDS011;9199;48.832;9.182;2023-04-15T02:38:48;8.23;;;3.53;;
18146;SDS011;9199;48.832;9.182;2023-04-15T02:41:15;7.35;;;2.97;;
18146;SDS011;9199;48.832;9.182;2023-04-15T02:43:42;6.60;;;3.03;;
18146;SDS011;9199;48.832;9.182;2023-04-15T02:46:09;11.20;;;3.45;;
18146;SDS011;9199;48.832;9.182;2023-04-15T02:48:38;7.05;;;3.20;;
18146;SDS011;9199;48.832;9.182;2023-04-15T02:51:12;9.18;;;3.28;;
18146;SDS011;9199;48.832;9.182;2023-04-15T02:53:40;8.35;;;3.00;;
18146;SDS011;9199;48.832;9.182;2023-04-15T02:56:07;9.33;;;3.10;;
18146;SDS011;9199;48.832;9.182;2023-04-15T02:58:35;9.30;;;3.08;;
18146;SDS011;9199;48.832;9.182;2023-04-15T03:01:02;6.95;;;2.70;;
18146;SDS011;9199;48.832;9.182;2023-04-15T03:03:29;9.77;;;2.72;;
18146;SDS011;9199;48.832;9.182;2023-04-15T03:05:55;6.30;;;2.60;;
18146;SDS011;9199;48.832;9.182;2023-04-15T03:08:22;9.30;;;2.87;;
18146;SDS011;9199;48.832;9.182;2023-04-15T03:10:50;7.40;;;3.00;;
18146;SDS011;9199;48.832;9.182;2023-04-15T03:13:18;9.30;;;3.95;;
18146;SDS011;9199;48.832;9.182;2023-04-15T03:15:48;8.30;;;4.00;;
18146;SDS011;9199;48.832;9.182;2023-04-15T03:18:14;10.70;;;4.25;;
18146;SDS011;9199;48.832;9.182;2023-04-15T03:20:44;10.87;;;4.67;;
18146;SDS011;9199;48.832;9.182;2023-04-15T03:23:11;8.30;;;4.53;;
18146;SDS011;9199;48.832;9.182;2023-04-15T03:25:37;8.55;;;4.05;;
18146;SDS011;9199;48.832;9.182;2023-04-15T03:28:05;11.27;;;4.68;;
18146;SDS011;9199;48.832;9.182;2023-04-15T03:30:32;11.40;;;5.57;;
18146;SDS011;9199;48.832;9.182;2023-04-15T03:32:59;8.60;;;4.70;;
18146;SDS011;9199;48.832;9.182;2023-04-15T03:35:26;10.93;;;5.05;;
18146;SDS011;9199;48.832;9.182;2023-04-15T03:37:52;11.68;;;4.97;;
18146;SDS011;9199;48.832;9.182;2023-04-15T03:40:19;9.25;;;4.65;;
18146;SDS011;9199;48.832;9.182;2023-04-15T03:42:46;10.02;;;4.57;;
18146;SDS011;9199;48.832;9.182;2023-04-15T03:45:14;10.13;;;5.00;;
18146;SDS011;9199;48.832;9.182;2023-04-15T03:47:41;12.18;;;5.85;;
18146;SDS011;9199;48.832;9.182;2023-04-15T03:50:08;12.82;;;5.63;;
18146;SDS011;9199;48.832;9.182;2023-04-15T03:52:35;11.60;;;6.00;;
18146;SDS011;9199;48.832;9.182;2023-04-15T03:55:02;11.02;;;5.22;;
18146;SDS011;9199;48.832;9.182;2023-04-15T03:57:29;11.50;;;5.27;;
18146;SDS011;9199;48.832;9.182;2023-04-15T03:59:56;9.63;;;4.50;;
18146;SDS011;9199;48.832;9.182;2023-04-15T04:02:24;9.45;;;4.32;;
18146;SDS011;9199;48.832;9.182;2023-04-15T04:04:52;12.82;;;5.03;;
18146;SDS011;9199;48.832;9.182;2023-04-15T04:07:18;12.00;;;4.68;;
18146;SDS011;9199;48.832;9.182;2023-04-15T04:09:45;8.53;;;4.80;;
18146;SDS011;9199;48.832;9.182;2023-04-15T04:12:12;14.07;;;4.93;;
18146;SDS011;9199;48.832;9.182;2023-04-15T04:14:38;10.05;;;4.82;;
18146;SDS011;9199;48.832;9.182;2023-04-15T04:17:05;9.20;;;5.00;;
18146;SDS011;9199;48.832;9.182;2023-04-15T04:19:34;9.63;;;5.60;;
18146;SDS011;9199;48.832;9.182;2023-04-15T04:22:00;12.20;;;5.60;;
18146;SDS011;9199;48.832;9.182;2023-04-15T04:24:27;12.45;;;7.40;;
18146;SDS011;9199;48.832;9.182;2023-04-15T04:26:54;12.48;;;6.97;;
18146;SDS011;9199;48.832;9.182;2023-04-15T04:29:21;11.90;;;6.05;;
18146;SDS011;9199;48.832;9.182;2023-04-15T04:31:48;14.48;;;5.95;;
18146;SDS011;9199;48.832;9.182;2023-04-15T04:34:15;13.00;;;6.53;;
18146;SDS011;9199;48.832;9.182;2023-04-15T04:36:43;13.85;;;6.50;;
18146;SDS011;9199;48.832;9.182;2023-04-15T04:39:10;12.38;;;6.18;;
18146;SDS011;9199;48.832;9.182;2023-04-15T04:41:36;10.63;;;4.50;;
18146;SDS011;9199;48.832;9.182;2023-04-15T04:44:03;10.77;;;5.13;;
18146;SDS011;9199;48.832;9.182;2023-04-15T04:46:30;11.93;;;5.87;;
18146;SDS011;9199;48.832;9.182;2023-04-15T04:48:56;13.65;;;6.47;;
18146;SDS011;9199;48.832;9.182;2023-04-15T04:51:23;13.82;;;7.00;;
18146;SDS011;9199;48.832;9.182;2023-04-15T04:53:51;11.55;;;6.60;;
18146;SDS011;9199;48.832;9.182;2023-04-15T04:56:18;10.57;;;5.10;;
18146;SDS011;9199;48.832;9.182;2023-04-15T04:58:45;12.73;;;5.20;;
18146;SDS011;9199;48.832;9.182;2023-04-15T05:01:12;9.98;;;5.20;;
18146;SDS011;9199;48.832;9.182;2023-04-15T05:03:39;9.07;;;4.68;;
18146;SDS011;9199;48.832;9.182;2023-04-15T05:06:06;11.73;;;5.18;;
18146;SDS011;9199;48.832;9.182;2023-04-15T05:08:33;11.75;;;4.80;;
18146;SDS011;9199;48.832;9.182;2023-04-15T05:11:01;11.13;;;5.30;;
18146;SDS011;9199;48.832;9.182;2023-04-15T05:13:28;11.32;;;5.40;;
18146;SDS011;9199;48.832;9.182;2023-04-15T05:15:55;11.40;;;5.25;;
18146;SDS011;9199;48.832;9.182;2023-04-15T05:18:21;13.13;;;5.55;;
18146;SDS011;9199;48.832;9.182;2023-04-15T05:20:48;10.43;;;5.40;;
18146;SDS011;9199;48.832;9.182;2023-04-15T05:23:15;10.63;;;5.50;;
18146;SDS011;9199;48.832;9.182;2023-04-15T05:25:42;10.18;;;5.50;;
18146;SDS011;9199;48.832;9.182;2023-04-15T05:28:10;10.20;;;5.15;;
18146;SDS011;9199;48.832;9.182;2023-04-15T05:30:37;11.18;;;5.53;;
18146;SDS011;9199;48.832;9.182;2023-04-15T05:33:04;10.40;;;5.03;;
18146;SDS011;9199;48.832;9.182;2023-04-15T05:35:31;8.73;;;5.20;;
18146;SDS011;9199;48.832;9.182;2023-04-15T05:37:57;13.25;;;5.60;;
18146;SDS011;9199;48.832;9.182;2023-04-15T05:40:24;10.25;;;5.47;;
18146;SDS011;9199;48.832;9.182;2023-04-15T05:42:51;12.45;;;5.53;;
18146;SDS011;9199;48.832;9.182;2023-04-15T05:45:19;10.50;;;4.80;;
18146;SDS011;9199;48.832;9.182;2023-04-15T05:47:45;15.70;;;5.00;;
18146;SDS011;9199;48.832;9.182;2023-04-15T05:50:14;9.88;;;4.78;;
18146;SDS011;9199;48.832;9.182;2023-04-15T05:52:41;13.20;;;4.90;;
18146;SDS011;9199;48.832;9.182;2023-04-15T05:55:08;12.85;;;4.75;;
18146;SDS011;9199;48.832;9.182;2023-04-15T05:57:35;9.45;;;4.65;;
18146;SDS011;9199;48.832;9.182;2023-04-15T06:00:02;11.03;;;4.80;;
18146;SDS011;9199;48.832;9.182;2023-04-15T06:02:31;11.00;;;5.57;;
18146;SDS011;9199;48.832;9.182;2023-04-15T06:04:57;9.05;;;5.00;;
18146;SDS011;9199;48.832;9.182;2023-04-15T06:07:24;13.05;;;6.00;;
18146;SDS011;9199;48.832;9.182;2023-04-15T06:09:51;10.48;;;4.97;;
18146;SDS011;9199;48.832;9.182;2023-04-15T06:12:18;11.10;;;6.00;;
18146;SDS011;9199;48.832;9.182;2023-04-15T06:14:44;12.10;;;5.68;;
18146;SDS011;9199;48.832;9.182;2023-04-15T06:17:11;12.02;;;6.00;;
18146;SDS011;9199;48.832;9.182;2023-04-15T06:19:40;11.23;;;5.72;;
18146;SDS011;9199;48.832;9.182;2023-04-15T06:22:07;10.18;;;5.55;;
18146;SDS011;9199;48.832;9.182;2023-04-15T06:24:34;11.07;;;5.90;;
18146;SDS011;9199;48.832;9.182;2023-04-15T06:27:01;12.43;;;6.00;;
18146;SDS011;9199;48.832;9.182;2023-04-15T06:29:27;13.27;;;5.90;;
18146;SDS011;9199;48.832;9.182;2023-04-15T06:31:54;9.82;;;5.68;;
18146;SDS011;9199;48.832;9.182;2023-04-15T06:34:21;10.35;;;5.55;;
18146;SDS011;9199;48.832;9.182;2023-04-15T06:36:49;11.87;;;5.30;;
18146;SDS011;9199;48.832;9.182;2023-04-15T06:39:16;11.05;;;5.53;;
18146;SDS011;9199;48.832;9.182;2023-04-15T06:41:43;10.30;;;5.20;;
18146;SDS011;9199;48.832;9.182;2023-04-15T06:44:10;11.07;;;5.65;;
18146;SDS011;9199;48.832;9.182;2023-04-15T06:46:36;11.63;;;5.15;;
18146;SDS011;9199;48.832;9.182;2023-04-15T06:49:03;10.30;;;4.50;;
18146;SDS011;9199;48.832;9.182;2023-04-15T06:51:30;10.90;;;4.80;;
18146;SDS011;9199;48.832;9.182;2023-04-15T06:53:58;11.18;;;4.55;;
18146;SDS011;9199;48.832;9.182;2023-04-15T06:56:25;10.38;;;4.18;;
18146;SDS011;9199;48.832;9.182;2023-04-15T06:58:51;10.18;;;4.30;;
18146;SDS011;9199;48.832;9.182;2023-04-15T07:01:18;9.60;;;4.50;;
18146;SDS011;9199;48.832;9.182;2023-04-15T07:03:45;9.48;;;4.18;;
18146;SDS011;9199;48.832;9.182;2023-04-15T07:06:12;8.15;;;4.07;;
18146;SDS011;9199;48.832;9.182;2023-04-15T07:08:38;9.57;;;4.20;;
18146;SDS011;9199;48.832;9.182;2023-04-15T07:11:07;9.50;;;4.00;;
18146;SDS011;9199;48.832;9.182;2023-04-15T07:13:33;10.07;;;4.37;;
18146;SDS011;9199;48.832;9.182;2023-04-15T07:16:00;10.10;;;4.40;;
18146;SDS011;9199;48.832;9.182;2023-04-15T07:18:27;9.27;;;4.38;;
18146;SDS011;9199;48.832;9.182;2023-04-15T07:20:54;10.25;;;4.10;;
18146;SDS011;9199;48.832;9.182;2023-04-15T07:23:20;10.45;;;4.55;;
18146;SDS011;9199;48.832;9.182;2023-04-15T07:25:47;7.93;;;4.00;;
18146;SDS011;9199;48.832;9.182;2023-04-15T07:28:15;9.25;;;4.18;;
18146;SDS011;9199;48.832;9.182;2023-04-15T07:30:42;9.77;;;4.20;;
18146;SDS011;9199;48.832;9.182;2023-04-15T07:33:08;9.45;;;4.05;;
18146;SDS011;9199;48.832;9.182;2023-04-15T07:35:35;18.00;;;6.25;;
18146;SDS011;9199;48.832;9.182;2023-04-15T07:38:02;12.20;;;5.53;;
18146;SDS011;9199;48.832;9.182;2023-04-15T07:40:28;12.77;;;5.57;;
18146;SDS011;9199;48.832;9.182;2023-04-15T07:42:55;11.15;;;4.72;;
18146;SDS011;9199;48.832;9.182;2023-04-15T07:45:23;9.18;;;4.95;;
18146;SDS011;9199;48.832;9.182;2023-04-15T07:47:51;7.28;;;4.03;;
18146;SDS011;9199;48.832;9.182;2023-04-15T07:50:17;10.67;;;4.00;;
18146;SDS011;9199;48.832;9.182;2023-04-15T07:52:44;10.05;;;4.15;;
18146;SDS011;9199;48.832;9.182;2023-04-15T07:55:11;8.93;;;4.30;;
18146;SDS011;9199;48.832;9.182;2023-04-15T07:57:38;11.27;;;4.40;;
18146;SDS011;9199;48.832;9.182;2023-04-15T08:00:05;9.52;;;4.22;;
18146;SDS011;9199;48.832;9.182;2023-04-15T08:02:34;9.50;;;4.50;;
18146;SDS011;9199;48.832;9.182;2023-04-15T08:05:01;8.57;;;4.40;;
18146;SDS011;9199;48.832;9.182;2023-04-15T08:07:28;11.15;;;4.40;;
18146;SDS011;9199;48.832;9.182;2023-04-15T08:09:55;8.95;;;4.50;;
18146;SDS011;9199;48.832;9.182;2023-04-15T08:12:22;8.88;;;4.22;;
18146;SDS011;9199;48.832;9.182;2023-04-15T08:14:49;9.30;;;4.17;;
18146;SDS011;9199;48.832;9.182;2023-04-15T08:17:16;8.65;;;3.92;;
18146;SDS011;9199;48.832;9.182;2023-04-15T08:19:44;10.68;;;4.10;;
18146;SDS011;9199;48.832;9.182;2023-04-15T08:22:12;8.38;;;3.17;;
18146;SDS011;9199;48.832;9.182;2023-04-15T08:24:39;9.10;;;3.75;;
18146;SDS011;9199;48.832;9.182;2023-04-15T08:27:06;7.83;;;3.00;;
18146;SDS011;9199;48.832;9.182;2023-04-15T08:29:32;8.10;;;3.10;;
18146;SDS011;9199;48.832;9.182;2023-04-15T08:31:59;7.50;;;3.55;;
18146;SDS011;9199;48.832;9.182;2023-04-15T08:34:27;7.70;;;3.65;;
18146;SDS011;9199;48.832;9.182;2023-04-15T08:36:56;7.63;;;3.63;;
18146;SDS011;9199;48.832;9.182;2023-04-15T08:39:22;9.63;;;4.07;;
18146;SDS011;9199;48.832;9.182;2023-04-15T08:41:50;8.30;;;3.65;;
18146;SDS011;9199;48.832;9.182;2023-04-15T08:44:21;7.90;;;3.08;;
18146;SDS011;9199;48.832;9.182;2023-04-15T08:46:49;7.82;;;3.25;;
18146;SDS011;9199;48.832;9.182;2023-04-15T08:49:17;8.18;;;3.08;;
18146;SDS011;9199;48.832;9.182;2023-04-15T08:51:45;8.40;;;2.17;;
18146;SDS011;9199;48.832;9.182;2023-04-15T08:54:14;6.97;;;2.35;;
18146;SDS011;9199;48.832;9.182;2023-04-15T08:56:41;6.43;;;2.05;;
18146;SDS011;9199;48.832;9.182;2023-04-15T08:59:07;7.95;;;2.58;;
18146;SDS011;9199;48.832;9.182;2023-04-15T09:01:35;5.80;;;2.60;;
18146;SDS011;9199;48.832;9.182;2023-04-15T09:04:03;6.83;;;2.60;;
18146;SDS011;9199;48.832;9.182;2023-04-15T09:06:32;6.35;;;3.03;;
18146;SDS011;9199;48.832;9.182;2023-04-15T09:08:59;7.70;;;2.90;;
18146;SDS011;9199;48.832;9.182;2023-04-15T09:11:27;7.63;;;2.65;;
18146;SDS011;9199;48.832;9.182;2023-04-15T09:13:55;6.20;;;3.15;;
18146;SDS011;9199;48.832;9.182;2023-04-15T09:16:22;7.73;;;3.00;;
18146;SDS011;9199;48.832;9.182;2023-04-15T09:18:49;6.65;;;2.72;;
18146;SDS011;9199;48.832;9.182;2023-04-15T09:21:16;5.57;;;2.47;;
18146;SDS011;9199;48.832;9.182;2023-04-15T09:23:53;6.40;;;2.80;;
18146;SDS011;9199;48.832;9.182;2023-04-15T09:26:30;7.40;;;2.55;;
18146;SDS011;9199;48.832;9.182;2023-04-15T09:29:01;7.37;;;2.90;;
18146;SDS011;9199;48.832;9.182;2023-04-15T09:31:29;6.05;;;2.85;;
18146;SDS011;9199;48.832;9.182;2023-04-15T09:33:56;6.20;;;2.90;;
18146;SDS011;9199;48.832;9.182;2023-04-15T09:36:23;4.80;;;2.10;;
18146;SDS011;9199;48.832;9.182;2023-04-15T09:38:54;5.53;;;2.20;;
18146;SDS011;9199;48.832;9.182;2023-04-15T09:41:21;5.20;;;2.63;;
18146;SDS011;9199;48.832;9.182;2023-04-15T09:43:50;5.50;;;2.20;;
18146;SDS011;9199;48.832;9.182;2023-04-15T09:46:16;5.38;;;2.30;;
18146;SDS011;9199;48.832;9.182;2023-04-15T09:48:43;4.38;;;2.20;;
18146;SDS011;9199;48.832;9.182;2023-04-15T09:51:10;6.05;;;2.30;;
18146;SDS011;9199;48.832;9.182;2023-04-15T09:53:37;4.30;;;2.00;;
18146;SDS011;9199;48.832;9.182;2023-04-15T09:56:04;6.38;;;2.30;;
18146;SDS011;9199;48.832;9.182;2023-04-15T09:58:33;6.28;;;2.50;;
18146;SDS011;9199;48.832;9.182;2023-04-15T10:01:04;4.85;;;2.10;;
18146;SDS011;9199;48.832;9.182;2023-04-15T10:03:32;4.82;;;2.00;;
18146;SDS011;9199;48.832;9.182;2023-04-15T10:06:01;6.20;;;2.60;;
18146;SDS011;9199;48.832;9.182;2023-04-15T10:08:30;5.82;;;2.78;;
18146;SDS011;9199;48.832;9.182;2023-04-15T10:10:58;7.65;;;2.30;;
18146;SDS011;9199;48.832;9.182;2023-04-15T10:13:28;5.57;;;2.22;;
18146;SDS011;9199;48.832;9.182;2023-04-15T10:15:58;5.75;;;2.55;;
18146;SDS011;9199;48.832;9.182;2023-04-15T10:18:27;7.13;;;2.50;;
18146;SDS011;9199;48.832;9.182;2023-04-15T10:20:56;6.28;;;2.40;;
18146;SDS011;9199;48.832;9.182;2023-04-15T10:23:24;6.57;;;2.60;;
18146;SDS011;9199;48.832;9.182;2023-04-15T10:25:51;6.53;;;2.58;;
18146;SDS011;9199;48.832;9.182;2023-04-15T10:28:19;6.05;;;2.63;;
18146;SDS011;9199;48.832;9.182;2023-04-15T10:30:47;6.30;;;2.30;;
18146;SDS011;9199;48.832;9.182;2023-04-15T10:33:15;6.88;;;2.20;;
18146;SDS011;9199;48.832;9.182;2023-04-15T10:35:45;6.88;;;2.25;;
18146;SDS011;9199;48.832;9.182;2023-04-15T10:38:31;4.45;;;2.13;;
18146;SDS011;9199;48.832;9.182;2023-04-15T10:41:10;7.22;;;2.30;;
18146;SDS011;9199;48.832;9.182;2023-04-15T10:43:45;5.73;;;2.30;;
18146;SDS011;9199;48.832;9.182;2023-04-15T10:46:16;6.32;;;2.50;;
18146;SDS011;9199;48.832;9.182;2023-04-15T10:48:48;6.65;;;2.60;;
18146;SDS011;9199;48.832;9.182;2023-04-15T10:51:25;5.63;;;2.40;;
18146;SDS011;9199;48.832;9.182;2023-04-15T10:53:55;6.25;;;2.30;;
18146;SDS011;9199;48.832;9.182;2023-04-15T10:56:23;9.17;;;3.00;;
18146;SDS011;9199;48.832;9.182;2023-04-15T10:58:50;6.45;;;2.58;;
18146;SDS011;9199;48.832;9.182;2023-04-15T11:01:18;8.10;;;2.90;;
18146;SDS011;9199;48.832;9.182;2023-04-15T11:03:46;9.63;;;3.33;;
18146;SDS011;9199;48.832;9.182;2023-04-15T11:06:13;7.68;;;3.00;;
18146;SDS011;9199;48.832;9.182;2023-04-15T11:08:54;7.07;;;2.63;;
18146;SDS011;9199;48.832;9.182;2023-04-15T11:11:23;5.68;;;2.70;;
18146;SDS011;9199;48.832;9.182;2023-04-15T11:14:24;7.13;;;3.05;;
18146;SDS011;9199;48.832;9.182;2023-04-15T11:16:51;6.40;;;2.75;;
18146;SDS011;9199;48.832;9.182;2023-04-15T11:19:17;6.20;;;2.90;;
18146;SDS011;9199;48.832;9.182;2023-04-15T11:21:44;6.33;;;3.23;;
18146;SDS011;9199;48.832;9.182;2023-04-15T11:24:12;7.38;;;3.22;;
18146;SDS011;9199;48.832;9.182;2023-04-15T11:26:55;7.85;;;3.10;;
18146;SDS011;9199;48.832;9.182;2023-04-15T11:29:27;6.75;;;3.30;;
18146;SDS011;9199;48.832;9.182;2023-04-15T11:32:00;6.80;;;2.72;;
18146;SDS011;9199;48.832;9.182;2023-04-15T11:34:31;6.23;;;2.50;;
18146;SDS011;9199;48.832;9.182;2023-04-15T11:36:59;6.72;;;2.35;;
18146;SDS011;9199;48.832;9.182;2023-04-15T11:39:30;4.90;;;2.40;;
18146;SDS011;9199;48.832;9.182;2023-04-15T11:41:57;6.22;;;2.63;;
18146;SDS011;9199;48.832;9.182;2023-04-15T11:44:23;9.57;;;3.30;;
18146;SDS011;9199;48.832;9.182;2023-04-15T11:46:50;8.13;;;3.07;;
18146;SDS011;9199;48.832;9.182;2023-04-15T11:49:26;6.93;;;3.15;;
18146;SDS011;9199;48.832;9.182;2023-04-15T11:51:54;8.05;;;3.28;;
18146;SDS011;9199;48.832;9.182;2023-04-15T11:54:21;5.78;;;3.17;;
18146;SDS011;9199;48.832;9.182;2023-04-15T11:56:50;8.48;;;3.15;;
18146;SDS011;9199;48.832;9.182;2023-04-15T11:59:18;7.97;;;2.57;;
18146;SDS011;9199;48.832;9.182;2023-04-15T12:01:45;6.70;;;2.45;;
18146;SDS011;9199;48.832;9.182;2023-04-15T12:04:12;6.18;;;2.58;;
18146;SDS011;9199;48.832;9.182;2023-04-15T12:06:40;8.10;;;2.70;;
18146;SDS011;9199;48.832;9.182;2023-04-15T12:09:08;6.35;;;2.80;;
18146;SDS011;9199;48.832;9.182;2023-04-15T12:11:46;5.80;;;2.50;;
18146;SDS011;9199;48.832;9.182;2023-04-15T12:14:23;5.63;;;2.40;;
18146;SDS011;9199;48.832;9.182;2023-04-15T12:16:52;7.72;;;3.08;;
18146;SDS011;9199;48.832;9.182;2023-04-15T12:19:24;5.70;;;2.70;;
18146;SDS011;9199;48.832;9.182;2023-04-15T12:21:53;7.90;;;2.70;;
18146;SDS011;9199;48.832;9.182;2023-04-15T12:24:23;8.90;;;2.73;;
18146;SDS011;9199;48.832;9.182;2023-04-15T12:26:51;7.88;;;3.15;;
18146;SDS011;9199;48.832;9.182;2023-04-15T12:29:19;8.15;;;4.40;;
18146;SDS011;9199;48.832;9.182;2023-04-15T12:31:51;8.60;;;4.22;;
18146;SDS011;9199;48.832;9.182;2023-04-15T12:34:24;8.18;;;4.20;;
18146;SDS011;9199;48.832;9.182;2023-04-15T12:36:53;8.67;;;4.40;;
18146;SDS011;9199;48.832;9.182;2023-04-15T12:39:21;9.48;;;4.32;;
18146;SDS011;9199;48.832;9.182;2023-04-15T12:41:48;7.40;;;4.30;;
18146;SDS011;9199;48.832;9.182;2023-04-15T12:44:15;6.32;;;4.00;;
18146;SDS011;9199;48.832;9.182;2023-04-15T12:46:41;6.95;;;3.90;;
18146;SDS011;9199;48.832;9.182;2023-04-15T12:49:10;6.10;;;3.27;;
18146;SDS011;9199;48.832;9.182;2023-04-15T12:51:38;6.82;;;3.67;;
18146;SDS011;9199;48.832;9.182;2023-04-15T12:54:05;6.63;;;3.78;;
18146;SDS011;9199;48.832;9.182;2023-04-15T12:56:32;8.13;;;5.07;;
18146;SDS011;9199;48.832;9.182;2023-04-15T12:58:59;6.60;;;4.10;;
18146;SDS011;9199;48.832;9.182;2023-04-15T13:01:25;8.47;;;4.53;;
18146;SDS011;9199;48.832;9.182;2023-04-15T13:03:52;8.73;;;2.67;;
18146;SDS011;9199;48.832;9.182;2023-04-15T13:06:20;6.10;;;3.33;;
18146;SDS011;9199;48.832;9.182;2023-04-15T13:08:48;14.15;;;5.85;;
18146;SDS011;9199;48.832;9.182;2023-04-15T13:11:14;11.73;;;5.40;;
18146;SDS011;9199;48.832;9.182;2023-04-15T13:13:42;9.27;;;4.00;;
18146;SDS011;9199;48.832;9.182;2023-04-15T13:16:08;6.68;;;2.70;;
18146;SDS011;9199;48.832;9.182;2023-04-15T13:18:35;6.03;;;2.20;;
18146;SDS011;9199;48.832;9.182;2023-04-15T13:21:02;5.88;;;2.17;;
18146;SDS011;9199;48.832;9.182;2023-04-15T13:23:33;5.43;;;2.08;;
18146;SDS011;9199;48.832;9.182;2023-04-15T13:25:59;5.50;;;2.47;;
18146;SDS011;9199;48.832;9.182;2023-04-15T13:28:26;5.60;;;1.95;;
18146;SDS011;9199;48.832;9.182;2023-04-15T13:30:53;5.35;;;1.95;;
18146;SDS011;9199;48.832;9.182;2023-04-15T13:33:20;4.47;;;1.65;;
18146;SDS011;9199;48.832;9.182;2023-04-15T13:35:46;5.22;;;1.40;;
18146;SDS011;9199;48.832;9.182;2023-04-15T13:38:13;2.87;;;1.27;;
18146;SDS011;9199;48.832;9.182;2023-04-15T13:40:41;3.72;;;1.30;;
18146;SDS011;9199;48.832;9.182;2023-04-15T13:43:08;3.78;;;1.20;;
18146;SDS011;9199;48.832;9.182;2023-04-15T13:45:35;4.28;;;1.48;;
18146;SDS011;9199;48.832;9.182;2023-04-15T13:48:02;3.17;;;1.08;;
18146;SDS011;9199;48.832;9.182;2023-04-15T13:50:28;4.03;;;0.90;;
18146;SDS011;9199;48.832;9.182;2023-04-15T13:52:55;3.83;;;1.17;;
18146;SDS011;9199;48.832;9.182;2023-04-15T13:55:22;2.97;;;1.13;;
18146;SDS011;9199;48.832;9.182;2023-04-15T13:57:50;2.22;;;0.90;;
18146;SDS011;9199;48.832;9.182;2023-04-15T14:00:17;3.63;;;1.10;;
18146;SDS011;9199;48.832;9.182;2023-04-15T14:02:43;4.03;;;1.40;;
18146;SDS011;9199;48.832;9.182;2023-04-15T14:05:11;3.10;;;1.10;;
18146;SDS011;9199;48.832;9.182;2023-04-15T14:07:37;2.80;;;0.93;;
18146;SDS011;9199;48.832;9.182;2023-04-15T14:10:05;4.07;;;1.40;;
18146;SDS011;9199;48.832;9.182;2023-04-15T14:12:32;3.40;;;1.20;;
18146;SDS011;9199;48.832;9.182;2023-04-15T14:15:00;2.50;;;1.00;;
18146;SDS011;9199;48.832;9.182;2023-04-15T14:17:27;3.10;;;1.05;;
18146;SDS011;9199;48.832;9.182;2023-04-15T14:19:53;3.55;;;0.90;;
18146;SDS011;9199;48.832;9.182;2023-04-15T14:22:20;3.08;;;1.20;;
18146;SDS011;9199;48.832;9.182;2023-04-15T14:24:47;3.47;;;1.17;;
18146;SDS011;9199;48.832;9.182;2023-04-15T14:27:13;3.10;;;1.00;;
18146;SDS011;9199;48.832;9.182;2023-04-15T14:29:40;4.90;;;1.00;;
18146;SDS011;9199;48.832;9.182;2023-04-15T14:32:08;4.90;;;1.05;;
18146;SDS011;9199;48.832;9.182;2023-04-15T14:34:35;3.55;;;1.10;;
18146;SDS011;9199;48.832;9.182;2023-04-15T14:37:02;3.88;;;1.20;;
18146;SDS011;9199;48.832;9.182;2023-04-15T14:39:29;4.90;;;2.00;;
18146;SDS011;9199;48.832;9.182;2023-04-15T14:41:55;3.47;;;1.15;;
18146;SDS011;9199;48.832;9.182;2023-04-15T14:44:22;2.20;;;0.95;;
18146;SDS011;9199;48.832;9.182;2023-04-15T14:46:49;2.53;;;1.00;;
18146;SDS011;9199;48.832;9.182;2023-04-15T14:49:18;3.53;;;1.15;;
18146;SDS011;9199;48.832;9.182;2023-04-15T14:51:45;3.43;;;1.20;;
18146;SDS011;9199;48.832;9.182;2023-04-15T14:54:11;3.45;;;1.40;;
18146;SDS011;9199;48.832;9.182;2023-04-15T14:56:38;4.53;;;1.30;;
18146;SDS011;9199;48.832;9.182;2023-04-15T14:59:05;3.33;;;1.40;;
18146;SDS011;9199;48.832;9.182;2023-04-15T15:01:32;3.80;;;1.50;;